createdAt,value
2019-04-22T00:02:15.158Z,10.50
2019-04-22T00:07:36.207Z,10.30
2019-04-22T00:12:43.503Z,9.90
2019-04-22T00:17:40.396Z,9.70
2019-04-22T00:22:31.789Z,9.80
2019-04-22T00:27:35.707Z,9.90
2019-04-22T00:32:49.528Z,9.70
2019-04-22T00:37:56.717Z,9.90
2019-04-22T00:47:46.278Z,9.50
2019-04-22T00:52:52.544Z,9.50
2019-04-22T00:57:39.600Z,9.30
2019-04-22T01:02:44.550Z,9.10
2019-04-22T01:07:37.462Z,9.00
2019-04-22T01:12:31.687Z,9.00
2019-04-22T01:17:32.977Z,9.20
2019-04-22T01:22:26.979Z,8.90
2019-04-22T01:27:20.439Z,9.00
2019-04-22T01:32:10.845Z,8.80
2019-04-22T01:37:21.653Z,8.80
2019-04-22T01:42:28.535Z,8.70
2019-04-22T01:47:26.143Z,8.90
2019-04-22T01:57:19.111Z,8.50
2019-04-22T02:02:18.928Z,8.60
2019-04-22T02:07:16.815Z,8.40
2019-04-22T02:12:17.703Z,8.30
2019-04-22T02:17:14.107Z,8.30
2019-04-22T02:22:05.583Z,8.30
2019-04-22T02:27:08.941Z,8.20
2019-04-22T02:32:17.100Z,8.30
2019-04-22T02:37:04.849Z,8.20
2019-04-22T02:42:02.966Z,8.30
2019-04-22T02:56:48.345Z,8.00
2019-04-22T03:06:43.577Z,7.90
2019-04-22T03:21:40.531Z,7.90
2019-04-22T03:47:01.923Z,7.70
2019-04-22T03:51:56.710Z,7.70
2019-04-22T04:06:57.417Z,7.80
2019-04-22T04:11:53.856Z,7.70
2019-04-22T04:16:39.584Z,7.60
2019-04-22T04:21:37.630Z,7.50
2019-04-22T04:36:32.223Z,7.30
2019-04-22T04:46:36.182Z,7.40
2019-04-22T04:51:26.920Z,7.40
2019-04-22T04:56:20.498Z,7.00
2019-04-22T05:06:12.975Z,7.40
2019-04-22T05:11:08.287Z,7.20
2019-04-22T05:16:17.588Z,7.30
2019-04-22T05:26:01.697Z,7.90
2019-04-22T05:30:47.344Z,7.80
2019-04-22T05:35:51.052Z,8.10
2019-04-22T05:40:49.652Z,8.30
2019-04-22T05:45:43.262Z,8.30
2019-04-22T05:50:47.418Z,8.40
2019-04-22T06:01:18.748Z,8.70
2019-04-22T06:15:34.155Z,9.40
2019-04-22T06:20:37.379Z,9.70
2019-04-22T06:25:55.004Z,10.10
2019-04-22T06:30:36.048Z,10.20
2019-04-22T06:40:32.818Z,10.90
2019-04-22T06:45:23.456Z,11.10
2019-04-22T06:50:23.133Z,11.10
2019-04-22T06:55:21.132Z,11.40
2019-04-22T07:00:18.546Z,11.60
2019-04-22T07:05:17.979Z,11.80
2019-04-22T07:10:22.560Z,12.00
2019-04-22T07:15:23.241Z,12.30
2019-04-22T07:20:13.983Z,12.40
2019-04-22T07:25:06.679Z,12.60
2019-04-22T07:30:09.392Z,12.80
2019-04-22T07:34:59.291Z,13.10
2019-04-22T07:39:56.250Z,13.40
2019-04-22T07:44:54.824Z,13.50
2019-04-22T07:50:23.397Z,13.40
2019-04-22T07:54:52.628Z,13.70
2019-04-22T07:59:49.397Z,14.00
2019-04-22T08:04:57.966Z,13.90
2019-04-22T08:09:53.917Z,13.50
2019-04-22T08:14:40.852Z,13.30
2019-04-22T08:19:41.902Z,13.40
2019-04-22T08:24:45.124Z,13.80
2019-04-22T08:34:31.016Z,15.00
2019-04-22T08:39:31.145Z,15.40
2019-04-22T08:44:39.009Z,16.00
2019-04-22T08:49:39.087Z,16.60
2019-04-22T08:54:31.196Z,17.10
2019-04-22T08:59:28.187Z,17.50
2019-04-22T09:04:16.640Z,17.80
2019-04-22T09:09:27.154Z,18.20
2019-04-22T09:14:24.285Z,18.30
2019-04-22T09:19:19.709Z,18.50
2019-04-22T09:24:16.742Z,18.80
2019-04-22T09:29:22.464Z,19.10
2019-04-22T09:34:10.074Z,19.40
2019-04-22T09:39:12.681Z,19.30
2019-04-22T09:44:05.721Z,19.50
2019-04-22T09:49:09.706Z,19.30
2019-04-22T09:54:08.878Z,19.50
2019-04-22T09:58:59.363Z,19.30
2019-04-22T10:13:54.103Z,19.80
2019-04-22T10:18:52.881Z,20.30
2019-04-22T10:23:44.395Z,20.70
2019-04-22T10:28:47.323Z,20.90
2019-04-22T10:33:38.259Z,20.70
2019-04-22T10:38:14.446Z,20.90
2019-04-22T10:43:11.559Z,21.00
2019-04-22T10:48:10.430Z,21.00
2019-04-22T10:53:07.756Z,21.10
2019-04-22T10:58:04.396Z,21.30
2019-04-22T11:03:00.334Z,21.50
2019-04-22T11:08:01.170Z,21.40
2019-04-22T11:12:54.685Z,21.40
2019-04-22T11:17:51.424Z,21.40
2019-04-22T11:22:48.823Z,21.80
2019-04-22T11:27:44.691Z,22.20
2019-04-22T11:32:40.739Z,22.30
2019-04-22T11:37:36.796Z,22.50
2019-04-22T11:42:34.258Z,22.70
2019-04-22T11:47:30.335Z,22.80
2019-04-22T11:52:26.916Z,22.60
2019-04-22T11:57:23.328Z,21.90
2019-04-22T12:02:23.283Z,21.20
2019-04-22T12:07:21.199Z,20.80
2019-04-22T12:12:18.084Z,20.70
2019-04-22T12:17:13.996Z,20.70
2019-04-22T12:22:11.064Z,21.30
2019-04-22T12:27:08.909Z,21.80
2019-04-22T12:32:05.309Z,22.00
2019-04-22T12:37:02.511Z,22.10
2019-04-22T12:41:58.529Z,22.30
2019-04-22T12:46:54.563Z,22.50
2019-04-22T12:51:51.397Z,22.40
2019-04-22T12:56:47.968Z,22.50
2019-04-22T13:01:44.712Z,22.40
2019-04-22T13:06:42.015Z,22.40
2019-04-22T13:11:38.890Z,22.60
2019-04-22T13:16:35.329Z,22.70
2019-04-22T13:21:31.276Z,22.60
2019-04-22T13:26:27.275Z,22.80
2019-04-22T13:31:24.438Z,22.90
2019-04-22T13:36:22.744Z,22.90
2019-04-22T13:41:28.936Z,22.90
2019-04-22T13:46:16.724Z,22.60
2019-04-22T13:51:48.768Z,22.30
2019-04-22T13:56:35.196Z,22.10
2019-04-22T14:01:16.510Z,22.10
2019-04-22T14:06:13.203Z,22.40
2019-04-22T14:11:16.866Z,22.70
2019-04-22T14:16:07.116Z,22.80
2019-04-22T14:21:02.939Z,23.00
2019-04-22T14:25:59.142Z,23.00
2019-04-22T14:30:54.986Z,22.90
2019-04-22T14:35:52.006Z,22.80
2019-04-22T14:40:48.330Z,22.80
2019-04-22T14:46:14.819Z,22.80
2019-04-22T14:51:00.962Z,22.80
2019-04-22T14:55:40.487Z,22.70
2019-04-22T15:00:36.269Z,22.60
2019-04-22T15:05:32.162Z,22.50
2019-04-22T15:10:28.294Z,22.50
2019-04-22T15:15:45.822Z,22.40
2019-04-22T15:20:47.484Z,22.30
2019-04-22T15:25:42.550Z,22.40
2019-04-22T15:30:39.392Z,22.20
2019-04-22T15:35:35.533Z,22.20
2019-04-22T15:40:32.177Z,22.20
2019-04-22T15:45:28.795Z,22.00
2019-04-22T15:50:26.540Z,21.70
2019-04-22T15:55:22.896Z,21.50
2019-04-22T16:00:31.936Z,21.40
2019-04-22T16:56:26.655Z,20.40
2019-04-22T17:02:01.104Z,20.30
2019-04-22T17:06:57.736Z,20.20
2019-04-22T17:11:54.036Z,19.80
2019-04-22T17:16:50.597Z,19.60
2019-04-22T17:21:55.494Z,19.40
2019-04-22T17:26:52.577Z,19.10
2019-04-22T17:31:56.694Z,19.00
2019-04-22T17:36:46.300Z,18.90
2019-04-22T17:42:03.457Z,18.70
2019-04-22T17:47:00.503Z,18.60
2019-04-22T17:52:21.602Z,18.50
2019-04-22T17:57:17.668Z,18.30
2019-04-22T18:02:15.406Z,18.20
2019-04-22T18:07:23.391Z,17.90
2019-04-22T18:12:20.528Z,17.80
2019-04-22T18:17:30.528Z,17.80
2019-04-22T18:22:16.140Z,17.70
2019-04-22T18:27:34.828Z,17.70
2019-04-22T18:32:08.786Z,17.70
2019-04-22T18:37:15.705Z,17.70
2019-04-22T18:42:09.154Z,17.60
2019-04-22T18:47:10.538Z,17.50
2019-04-22T18:52:29.499Z,17.10
2019-04-22T18:57:25.339Z,16.90
2019-04-22T19:02:09.003Z,16.70
2019-04-22T19:07:32.548Z,16.60
2019-04-22T19:12:28.607Z,16.50
2019-04-22T19:17:34.838Z,16.50
2019-04-22T19:22:15.194Z,16.20
2019-04-22T19:27:16.084Z,16.10
2019-04-22T19:32:18.455Z,15.90
2019-04-22T19:37:09.555Z,15.70
2019-04-22T19:42:19.044Z,15.50
2019-04-22T19:47:22.617Z,15.40
2019-04-22T19:56:53.072Z,15.20
2019-04-22T20:02:16.242Z,15.00
2019-04-22T20:07:24.803Z,14.90
2019-04-22T20:12:17.845Z,15.00
2019-04-22T20:17:18.704Z,15.00
2019-04-22T20:22:12.694Z,14.90
2019-04-22T20:27:13.622Z,14.80
2019-04-22T20:32:13.706Z,14.70
2019-04-22T20:42:16.465Z,14.40
2019-04-22T20:47:00.378Z,14.30
2019-04-22T20:52:11.173Z,14.40
2019-04-22T20:56:55.023Z,14.20
2019-04-22T21:01:56.653Z,14.10
2019-04-22T21:06:51.614Z,14.10
2019-04-22T21:11:48.984Z,14.20
2019-04-22T21:16:53.242Z,14.30
2019-04-22T21:21:54.949Z,14.30
2019-04-22T21:26:45.386Z,14.20
2019-04-22T21:31:48.171Z,14.00
2019-04-22T21:36:41.613Z,13.70
2019-04-22T21:41:37.506Z,13.70
2019-04-22T21:46:42.387Z,13.70
2019-04-22T21:51:39.994Z,13.60
2019-04-22T21:57:04.430Z,13.50
2019-04-22T22:02:04.339Z,13.60
2019-04-22T22:06:45.342Z,13.60
2019-04-22T22:11:55.476Z,13.30
2019-04-22T22:16:50.865Z,13.20
2019-04-22T22:22:53.630Z,13.20
2019-04-22T22:29:32.264Z,13.30
2019-04-22T22:34:28.190Z,13.10
2019-04-22T22:39:23.200Z,12.90
2019-04-22T22:44:27.217Z,12.90
2019-04-22T22:49:44.745Z,12.70
2019-04-22T22:54:44.142Z,12.40
2019-04-22T22:59:40.183Z,12.20
2019-04-22T23:04:45.602Z,12.30
2019-04-22T23:09:47.132Z,12.50
2019-04-22T23:14:44.143Z,12.40
2019-04-22T23:19:21.834Z,12.40
2019-04-22T23:25:22.312Z,12.30
2019-04-22T23:31:09.488Z,12.10
2019-04-22T23:49:09.916Z,12.00
2019-04-22T23:54:24.495Z,11.90
